Weather History for KCGE - September, 2013

Change the Weather History Date:

Thursday, September 19, 2013

  Actual Average (KESN) Record (KESN)
Temperature  
Mean Temperature 62 °F -  
Max Temperature 75 °F 80 °F 92 °F (1965)
Min Temperature 50 °F 59 °F 41 °F (1959)
Degree Days  
Heating Degree Days 2    
Growing Degree Days 12 (Base 50)    
Moisture  
Dew Point 52 °F    
Average Humidity 74    
Maximum Humidity 94    
Minimum Humidity 47    
Precipitation  
Precipitation 0.00 in - - ()
Sea Level Pressure  
Sea Level Pressure 30.16 in    
Wind  
Wind Speed 1 mph (SSE)    
Max Wind Speed 7 mph    
Max Gust Speed -    
Visibility 10 miles    
Events      
Averages and records for this station are not official NWS values.
T = Trace of Precipitation, MM = Missing Value Source: NWS Daily Summary

Daily Weather History Graph

Daily Weather History Graph

Search for Another Location

Airport or City:

Trip Planner

Search our weather history database for the weather conditions in past years. The results will help you decide how hot, cold, wet, or windy it might be!

Date:

Astronomy

Sep. 19, 2013 Rise Set
Actual Time 6:49 AM EDT 7:05 PM EDT
Civil Twilight 6:22 AM EDT 7:32 PM EDT
Nautical Twilight 5:51 AM EDT 8:03 PM EDT
Astronomical Twilight 5:20 AM EDT 8:34 PM EDT
Moon 7:03 PM EDT (9/19) 6:55 AM EDT (9/19)
Length of Visible Light 13h 09m
Length of Day
12h 16m
Full, 100% of the Moon is Illuminated
Sep 19
Full
Sep 26
Last Quarter
Oct 4
New
Oct 11
First Quarter
Oct 18
Full

Hourly Weather History & Observations

Time (EDT) Temp. Dew Point Humidity Pressure Visibility Wind Dir Wind Speed Gust Speed Precip Events Conditions
12:01 AM 50.0 °F 48.2 °F 94% 30.21 in 10.0 mi Calm Calm - N/A   Clear
12:21 AM 53.6 °F 51.8 °F 94% 30.21 in 10.0 mi Calm Calm - N/A   Clear
12:41 AM 50.0 °F 48.2 °F 94% 30.21 in 10.0 mi Calm Calm - N/A   Clear
1:01 AM 51.8 °F 50.0 °F 94% 30.21 in 10.0 mi Calm Calm - N/A   Clear
1:21 AM 51.8 °F 50.0 °F 94% 30.21 in 10.0 mi Calm Calm - N/A   Clear
1:41 AM 51.8 °F 50.0 °F 94% 30.20 in 10.0 mi Calm Calm - N/A   Clear
2:01 AM 51.8 °F 50.0 °F 94% 30.20 in 10.0 mi ESE 3.5 mph - N/A   Clear
2:22 AM 51.8 °F 50.0 °F 94% 30.20 in 10.0 mi Calm Calm - N/A   Clear
2:42 AM 53.6 °F 50.0 °F 88% 30.20 in 10.0 mi Calm Calm - N/A   Clear
3:02 AM 53.6 °F 50.0 °F 88% 30.19 in 10.0 mi Calm Calm - N/A   Clear
3:22 AM 53.6 °F 50.0 °F 88% 30.19 in 10.0 mi Calm Calm - N/A   Clear
3:42 AM 53.6 °F 50.0 °F 88% 30.18 in 10.0 mi Calm Calm - N/A   Clear
4:02 AM 53.6 °F 50.0 °F 88% 30.18 in 10.0 mi Calm Calm - N/A   Clear
4:22 AM 53.6 °F 51.8 °F 94% 30.18 in 10.0 mi Calm Calm - N/A   Clear
4:42 AM 53.6 °F 50.0 °F 88% 30.18 in 10.0 mi Calm Calm - N/A   Clear
5:02 AM 51.8 °F 50.0 °F 94% 30.18 in 10.0 mi ESE 3.5 mph - N/A   Clear
5:22 AM 50.0 °F 48.2 °F 94% 30.18 in 10.0 mi Calm Calm - N/A   Clear
5:42 AM 50.0 °F 48.2 °F 94% 30.18 in 10.0 mi Calm Calm - N/A   Clear
6:02 AM 50.0 °F 48.2 °F 94% 30.19 in 10.0 mi Calm Calm - N/A   Clear
6:22 AM 50.0 °F 48.2 °F 94% 30.19 in 10.0 mi Calm Calm - N/A   Clear
6:42 AM 50.0 °F 48.2 °F 94% 30.19 in 10.0 mi Calm Calm - N/A   Clear
7:02 AM 50.0 °F 48.2 °F 94% 30.20 in 10.0 mi Calm Calm - N/A   Clear
7:22 AM 50.0 °F 48.2 °F 94% 30.20 in 10.0 mi Calm Calm - N/A   Clear
7:42 AM 51.8 °F 50.0 °F 94% 30.20 in 10.0 mi Calm Calm - N/A   Clear
8:02 AM 55.4 °F 51.8 °F 88% 30.20 in 10.0 mi Calm Calm - N/A   Clear
8:22 AM 57.2 °F 53.6 °F 88% 30.19 in 10.0 mi Calm Calm - N/A   Clear
8:42 AM 60.8 °F 53.6 °F 77% 30.19 in 10.0 mi SE 3.5 mph - N/A   Clear
9:02 AM 62.6 °F 53.6 °F 72% 30.19 in 10.0 mi SE 3.5 mph - N/A   Clear
9:22 AM 64.4 °F 53.6 °F 68% 30.19 in 10.0 mi SSE 3.5 mph - N/A   Clear
9:42 AM 68.0 °F 55.4 °F 64% 30.19 in 10.0 mi South 4.6 mph - N/A   Clear
10:02 AM 68.0 °F 55.4 °F 64% 30.19 in 10.0 mi SSE 4.6 mph - N/A   Clear
10:22 AM 68.0 °F 55.4 °F 64% 30.20 in 10.0 mi Calm Calm - N/A   Clear
10:42 AM 69.8 °F 55.4 °F 60% 30.19 in 10.0 mi East 3.5 mph - N/A   Clear
11:03 AM 69.8 °F 53.6 °F 56% 30.20 in 10.0 mi South 3.5 mph - N/A   Scattered Clouds
11:23 AM 69.8 °F 51.8 °F 53% 30.20 in 10.0 mi SSE 3.5 mph - N/A   Scattered Clouds
11:43 AM 71.6 °F 51.8 °F 50% 30.19 in 10.0 mi South 4.6 mph - N/A   Scattered Clouds
12:03 PM 71.6 °F 51.8 °F 50% 30.19 in 10.0 mi SSW 5.8 mph - N/A   Scattered Clouds
12:23 PM 73.4 °F 51.8 °F 47% 30.18 in 10.0 mi Calm Calm - N/A   Scattered Clouds
12:43 PM 71.6 °F 53.6 °F 53% 30.17 in 10.0 mi NW 4.6 mph - N/A   Scattered Clouds
1:03 PM 71.6 °F 53.6 °F 53% 30.17 in 10.0 mi WNW 4.6 mph - N/A   Clear
1:23 PM 73.4 °F 53.6 °F 50% 30.16 in 10.0 mi Calm Calm - N/A   Scattered Clouds
1:43 PM 71.6 °F 53.6 °F 53% 30.15 in 10.0 mi Calm Calm - N/A   Overcast
2:03 PM 69.8 °F 53.6 °F 56% 30.15 in 10.0 mi Calm Calm - N/A   Mostly Cloudy
2:23 PM 69.8 °F 51.8 °F 53% 30.14 in 10.0 mi Calm Calm - N/A   Mostly Cloudy
2:43 PM 75.2 °F 55.4 °F 50% 30.13 in 10.0 mi ENE 5.8 mph - N/A   Mostly Cloudy
3:03 PM 75.2 °F 55.4 °F 50% 30.12 in 10.0 mi NW 4.6 mph - N/A   Mostly Cloudy
3:23 PM 75.2 °F 53.6 °F 47% 30.12 in 10.0 mi SSW 5.8 mph - N/A   Overcast
3:43 PM 75.2 °F 55.4 °F 50% 30.11 in 10.0 mi SW 5.8 mph - N/A   Mostly Cloudy
4:03 PM 73.4 °F 55.4 °F 53% 30.11 in 10.0 mi South 3.5 mph - N/A   Scattered Clouds
4:23 PM 75.2 °F 55.4 °F 50% 30.11 in 10.0 mi South 4.6 mph - N/A   Clear
4:43 PM 73.4 °F 53.6 °F 50% 30.11 in 10.0 mi South 6.9 mph - N/A   Clear
5:03 PM 75.2 °F 53.6 °F 47% 30.11 in 10.0 mi South 5.8 mph - N/A   Clear
5:23 PM 73.4 °F 51.8 °F 47% 30.11 in 10.0 mi South 5.8 mph - N/A   Clear
5:43 PM 73.4 °F 51.8 °F 47% 30.11 in 10.0 mi South 4.6 mph - N/A   Clear
6:03 PM 71.6 °F 51.8 °F 50% 30.11 in 10.0 mi Calm Calm - N/A   Clear
6:23 PM 69.8 °F 51.8 °F 53% 30.11 in 10.0 mi Calm Calm - N/A   Clear
6:43 PM 69.8 °F 53.6 °F 56% 30.12 in 10.0 mi Calm Calm - N/A   Clear
7:03 PM 62.6 °F 53.6 °F 72% 30.11 in 10.0 mi Calm Calm - N/A   Clear
7:24 PM 60.8 °F 53.6 °F 77% 30.11 in 10.0 mi Calm Calm - N/A   Clear
7:44 PM 60.8 °F 53.6 °F 77% 30.12 in 10.0 mi Calm Calm - N/A   Clear
8:04 PM 60.8 °F 55.4 °F 82% 30.12 in 10.0 mi Calm Calm - N/A   Clear
8:24 PM 59.0 °F 53.6 °F 82% 30.12 in 10.0 mi Calm Calm - N/A   Clear
8:44 PM 59.0 °F 53.6 °F 82% 30.12 in 10.0 mi SE 3.5 mph - N/A   Clear
9:04 PM 59.0 °F 53.6 °F 82% 30.12 in 10.0 mi SE 3.5 mph - N/A   Clear
9:24 PM 59.0 °F 53.6 °F 82% 30.12 in 10.0 mi Calm Calm - N/A   Clear
9:44 PM 59.0 °F 53.6 °F 82% 30.11 in 10.0 mi Calm Calm - N/A   Clear
10:04 PM 55.4 °F 51.8 °F 88% 30.11 in 10.0 mi ESE 4.6 mph - N/A   Clear
10:24 PM 55.4 °F 51.8 °F 88% 30.10 in 10.0 mi SE 3.5 mph - N/A   Clear
10:44 PM 57.2 °F 53.6 °F 88% 30.10 in 10.0 mi SE 3.5 mph - N/A   Clear
11:04 PM 55.4 °F 51.8 °F 88% 30.10 in 10.0 mi Calm Calm - N/A   Clear
11:24 PM 55.4 °F 53.6 °F 94% 30.10 in 10.0 mi Calm Calm - N/A   Clear
11:44 PM 55.4 °F 51.8 °F 88% 30.10 in 10.0 mi Calm Calm - N/A   Clear